createdAt,value
2024-02-19T00:00:25.267Z,714.00
2024-02-19T00:01:25.423Z,715.00
2024-02-19T00:02:25.399Z,716.00
2024-02-19T00:03:25.554Z,712.00
2024-02-19T00:04:25.562Z,712.00
2024-02-19T00:05:25.587Z,714.00
2024-02-19T00:06:25.609Z,712.00
2024-02-19T00:07:25.783Z,711.00
2024-02-19T00:08:25.734Z,711.00
2024-02-19T00:09:25.804Z,710.00
2024-02-19T00:10:25.886Z,713.00
2024-02-19T00:11:25.998Z,712.00
2024-02-19T00:12:26.146Z,715.00
2024-02-19T00:13:26.119Z,717.00
2024-02-19T00:14:26.112Z,716.00
2024-02-19T00:15:26.171Z,717.00
2024-02-19T00:16:26.237Z,718.00
2024-02-19T00:17:26.320Z,718.00
2024-02-19T00:18:26.436Z,717.00
2024-02-19T00:19:26.601Z,721.00
2024-02-19T00:20:26.499Z,718.00
2024-02-19T00:21:26.571Z,721.00
2024-02-19T00:22:26.669Z,721.00
2024-02-19T00:23:26.709Z,721.00
2024-02-19T00:24:26.775Z,721.00
2024-02-19T00:25:26.868Z,722.00
2024-02-19T00:26:26.924Z,722.00
2024-02-19T00:27:32.032Z,722.00
2024-02-19T00:28:26.992Z,718.00
2024-02-19T00:29:27.014Z,718.00
2024-02-19T00:30:27.005Z,718.00
2024-02-19T00:31:27.010Z,719.00
2024-02-19T00:32:27.045Z,720.00
2024-02-19T00:33:27.156Z,720.00
2024-02-19T00:34:27.057Z,719.00
2024-02-19T00:35:27.114Z,718.00
2024-02-19T00:36:27.180Z,719.00
2024-02-19T00:37:27.243Z,719.00
2024-02-19T00:38:27.297Z,718.00
2024-02-19T00:39:27.383Z,716.00
2024-02-19T00:40:27.488Z,716.00
2024-02-19T00:41:27.517Z,716.00
2024-02-19T00:42:27.606Z,715.00
2024-02-19T00:43:27.649Z,710.00
2024-02-19T00:44:27.711Z,712.00
2024-02-19T00:45:27.800Z,714.00
2024-02-19T00:46:27.848Z,713.00
2024-02-19T00:47:27.928Z,711.00
2024-02-19T00:48:27.964Z,710.00
2024-02-19T00:49:28.148Z,712.00
2024-02-19T00:50:28.070Z,712.00
2024-02-19T00:51:28.148Z,717.00
2024-02-19T00:52:28.187Z,713.00
2024-02-19T00:53:28.243Z,714.00
2024-02-19T00:54:28.287Z,713.00
2024-02-19T00:55:28.370Z,710.00
2024-02-19T00:56:28.415Z,708.00
2024-02-19T00:57:28.483Z,707.00
2024-02-19T00:58:28.519Z,707.00
2024-02-19T00:59:28.551Z,707.00
2024-02-19T01:00:28.554Z,711.00
2024-02-19T01:01:28.646Z,710.00
2024-02-19T01:02:28.589Z,709.00
2024-02-19T01:03:28.643Z,710.00
2024-02-19T01:04:28.701Z,710.00
2024-02-19T01:05:28.681Z,709.00
2024-02-19T01:06:28.589Z,712.00
2024-02-19T01:07:28.681Z,711.00
2024-02-19T01:08:28.613Z,715.00
2024-02-19T01:09:28.634Z,716.00
2024-02-19T01:10:28.641Z,715.00
2024-02-19T01:11:28.689Z,711.00
2024-02-19T01:12:34.346Z,708.00
2024-02-19T01:13:28.671Z,707.00
2024-02-19T01:14:28.639Z,705.00
2024-02-19T01:15:28.652Z,706.00
2024-02-19T01:16:28.656Z,703.00
2024-02-19T01:17:28.698Z,703.00
2024-02-19T01:18:28.686Z,701.00
2024-02-19T01:19:28.728Z,701.00
2024-02-19T01:20:28.682Z,703.00
2024-02-19T01:21:28.648Z,706.00
2024-02-19T01:22:28.662Z,705.00
2024-02-19T01:23:28.665Z,701.00
2024-02-19T01:24:28.659Z,702.00
2024-02-19T01:25:28.651Z,704.00
2024-02-19T01:26:28.647Z,706.00
2024-02-19T01:27:28.656Z,706.00
2024-02-19T01:28:28.686Z,710.00
2024-02-19T01:29:28.672Z,708.00
2024-02-19T01:30:28.649Z,710.00
2024-02-19T01:31:28.682Z,709.00
2024-02-19T01:32:28.708Z,708.00
2024-02-19T01:33:28.710Z,709.00
2024-02-19T01:34:28.762Z,709.00
2024-02-19T01:35:28.676Z,711.00
2024-02-19T01:36:28.652Z,712.00
2024-02-19T01:37:35.044Z,711.00
2024-02-19T01:38:28.657Z,709.00
2024-02-19T01:39:28.670Z,709.00
2024-02-19T01:40:28.715Z,708.00
2024-02-19T01:41:28.675Z,709.00
2024-02-19T01:42:28.653Z,707.00
2024-02-19T01:43:28.682Z,708.00
2024-02-19T01:44:28.674Z,706.00
2024-02-19T01:45:28.673Z,704.00
2024-02-19T01:46:28.690Z,705.00
2024-02-19T01:47:28.690Z,706.00
2024-02-19T01:48:28.705Z,705.00
2024-02-19T01:49:28.695Z,703.00
2024-02-19T01:50:28.677Z,702.00
2024-02-19T01:51:28.687Z,705.00
2024-02-19T01:52:28.685Z,702.00
2024-02-19T01:53:28.704Z,704.00
2024-02-19T01:54:28.693Z,703.00
2024-02-19T01:55:28.742Z,704.00
2024-02-19T01:56:28.687Z,705.00
2024-02-19T01:57:28.693Z,708.00
2024-02-19T01:58:28.702Z,708.00
2024-02-19T01:59:28.710Z,710.00
2024-02-19T02:00:28.725Z,710.00
2024-02-19T02:01:28.769Z,706.00
2024-02-19T02:02:28.727Z,706.00
2024-02-19T02:03:28.700Z,707.00
2024-02-19T02:04:28.724Z,707.00
2024-02-19T02:05:28.709Z,710.00
2024-02-19T02:06:28.731Z,707.00
2024-02-19T02:07:28.701Z,705.00
2024-02-19T02:08:28.701Z,706.00
2024-02-19T02:09:28.710Z,703.00
2024-02-19T02:10:28.743Z,704.00
2024-02-19T02:11:28.777Z,703.00
2024-02-19T02:12:28.780Z,704.00
2024-02-19T02:13:28.868Z,703.00
2024-02-19T02:14:28.896Z,704.00
2024-02-19T02:15:28.958Z,703.00
2024-02-19T02:16:29.020Z,702.00
2024-02-19T02:17:29.124Z,702.00
2024-02-19T02:18:29.200Z,701.00
2024-02-19T02:19:29.303Z,699.00
2024-02-19T02:20:29.231Z,700.00
2024-02-19T02:21:29.273Z,700.00
2024-02-19T02:22:29.315Z,702.00
2024-02-19T02:23:29.369Z,704.00
2024-02-19T02:24:30.411Z,705.00
2024-02-19T02:25:29.521Z,705.00
2024-02-19T02:26:29.495Z,704.00
2024-02-19T02:27:29.576Z,707.00
2024-02-19T02:28:29.575Z,710.00
2024-02-19T02:29:29.630Z,709.00
2024-02-19T02:30:29.654Z,708.00
2024-02-19T02:31:29.710Z,705.00
2024-02-19T02:32:29.796Z,704.00
2024-02-19T02:33:29.877Z,705.00
2024-02-19T02:34:29.916Z,706.00
2024-02-19T02:35:29.881Z,709.00
2024-02-19T02:36:29.921Z,706.00
2024-02-19T02:37:29.978Z,709.00
2024-02-19T02:38:30.034Z,709.00
2024-02-19T02:39:30.069Z,708.00
2024-02-19T02:40:30.112Z,710.00
2024-02-19T02:41:30.146Z,710.00
2024-02-19T02:42:30.187Z,711.00
2024-02-19T02:43:30.248Z,709.00
2024-02-19T02:44:30.302Z,706.00
2024-02-19T02:45:30.358Z,708.00
2024-02-19T02:46:30.431Z,706.00
2024-02-19T02:47:30.467Z,708.00
2024-02-19T02:48:30.579Z,704.00
2024-02-19T02:49:30.667Z,703.00
2024-02-19T02:50:30.603Z,707.00
2024-02-19T02:51:30.658Z,708.00
2024-02-19T02:52:30.707Z,708.00
2024-02-19T02:53:30.770Z,706.00
2024-02-19T02:54:30.795Z,707.00
2024-02-19T02:55:30.859Z,710.00
2024-02-19T02:56:30.913Z,709.00
2024-02-19T02:57:30.956Z,709.00
2024-02-19T02:58:31.012Z,709.00
2024-02-19T02:59:31.076Z,707.00
2024-02-19T03:00:31.106Z,706.00
2024-02-19T03:01:31.398Z,705.00
2024-02-19T03:02:31.215Z,706.00
2024-02-19T03:03:31.300Z,707.00
2024-02-19T03:04:31.449Z,701.00
2024-02-19T03:05:31.368Z,701.00
2024-02-19T03:06:31.453Z,702.00
2024-02-19T03:07:31.569Z,703.00
2024-02-19T03:08:31.563Z,702.00
2024-02-19T03:09:31.574Z,703.00
2024-02-19T03:10:31.643Z,703.00
2024-02-19T03:11:31.743Z,702.00
2024-02-19T03:12:31.737Z,703.00
2024-02-19T03:13:31.797Z,701.00
2024-02-19T03:14:31.851Z,702.00
2024-02-19T03:15:31.892Z,702.00
2024-02-19T03:16:31.941Z,703.00
2024-02-19T03:17:32.036Z,704.00
2024-02-19T03:18:32.136Z,705.00
2024-02-19T03:19:32.158Z,707.00
2024-02-19T03:20:32.235Z,706.00
2024-02-19T03:21:32.194Z,703.00
2024-02-19T03:22:32.250Z,704.00
2024-02-19T03:23:32.314Z,705.00
2024-02-19T03:24:32.363Z,701.00
2024-02-19T03:25:32.401Z,701.00
2024-02-19T03:26:38.141Z,701.00
2024-02-19T03:27:33.465Z,701.00
2024-02-19T03:28:32.461Z,702.00
2024-02-19T03:29:32.464Z,704.00
2024-02-19T03:30:32.471Z,706.00
2024-02-19T03:31:32.479Z,706.00
2024-02-19T03:32:32.521Z,709.00
2024-02-19T03:33:32.514Z,714.00
2024-02-19T03:34:32.528Z,713.00
2024-02-19T03:35:32.469Z,713.00
2024-02-19T03:36:32.478Z,713.00
2024-02-19T03:37:32.541Z,711.00
2024-02-19T03:38:32.552Z,711.00
2024-02-19T03:39:32.624Z,710.00
2024-02-19T03:40:32.669Z,713.00
2024-02-19T03:41:32.697Z,713.00
2024-02-19T03:42:32.760Z,711.00
2024-02-19T03:43:32.804Z,709.00
2024-02-19T03:44:32.871Z,711.00
2024-02-19T03:45:32.912Z,710.00
2024-02-19T03:46:32.965Z,711.00
2024-02-19T03:47:33.019Z,713.00
2024-02-19T03:48:33.139Z,716.00
2024-02-19T03:49:33.207Z,719.00
2024-02-19T03:50:33.179Z,722.00
2024-02-19T03:51:33.232Z,723.00
2024-02-19T03:52:33.281Z,721.00
2024-02-19T03:53:33.352Z,721.00
2024-02-19T03:54:33.440Z,723.00
2024-02-19T03:55:33.506Z,720.00
2024-02-19T03:56:33.502Z,719.00
2024-02-19T03:57:33.531Z,723.00
2024-02-19T03:58:33.577Z,724.00
2024-02-19T03:59:33.617Z,725.00
2024-02-19T04:00:33.665Z,722.00
2024-02-19T04:01:33.867Z,718.00
2024-02-19T04:02:33.757Z,720.00
2024-02-19T04:03:33.848Z,715.00
2024-02-19T04:04:33.943Z,714.00
2024-02-19T04:05:33.865Z,713.00
2024-02-19T04:06:33.942Z,714.00
2024-02-19T04:07:34.000Z,717.00
2024-02-19T04:08:34.027Z,716.00
2024-02-19T04:09:34.017Z,716.00
2024-02-19T04:10:34.078Z,715.00
2024-02-19T04:11:34.160Z,715.00
2024-02-19T04:12:34.187Z,713.00
2024-02-19T04:13:34.232Z,714.00
2024-02-19T04:14:34.276Z,717.00
2024-02-19T04:15:34.339Z,718.00
2024-02-19T04:16:34.354Z,718.00
2024-02-19T04:17:34.479Z,717.00
2024-02-19T04:18:34.500Z,719.00
2024-02-19T04:19:34.540Z,719.00
2024-02-19T04:20:34.530Z,719.00
2024-02-19T04:21:34.587Z,719.00
2024-02-19T04:22:34.642Z,719.00
2024-02-19T04:23:34.667Z,715.00
2024-02-19T04:24:34.806Z,716.00
2024-02-19T04:25:34.753Z,716.00
2024-02-19T04:26:34.840Z,717.00
2024-02-19T04:27:34.862Z,717.00
2024-02-19T04:28:34.909Z,716.00
2024-02-19T04:29:34.958Z,716.00
2024-02-19T04:30:35.018Z,714.00
2024-02-19T04:31:35.070Z,714.00
2024-02-19T04:32:35.180Z,715.00
2024-02-19T04:33:35.251Z,716.00
2024-02-19T04:34:39.336Z,716.00
2024-02-19T04:35:36.229Z,714.00
2024-02-19T04:36:35.218Z,716.00
2024-02-19T04:37:35.217Z,718.00
2024-02-19T04:38:35.233Z,719.00
2024-02-19T04:39:35.223Z,718.00
2024-02-19T04:40:35.229Z,717.00
2024-02-19T04:41:35.243Z,718.00
2024-02-19T04:42:35.241Z,718.00
2024-02-19T04:43:35.246Z,716.00
2024-02-19T04:44:35.267Z,718.00
2024-02-19T04:45:35.287Z,714.00
2024-02-19T04:46:42.608Z,688.00
2024-02-19T04:47:42.670Z,694.00
2024-02-19T04:48:42.706Z,693.00
2024-02-19T04:49:42.672Z,696.00
2024-02-19T04:50:42.594Z,696.00
2024-02-19T04:51:42.614Z,695.00
2024-02-19T04:52:42.643Z,698.00
2024-02-19T04:53:42.627Z,698.00
2024-02-19T04:54:42.712Z,698.00
2024-02-19T04:55:42.603Z,698.00
2024-02-19T04:56:42.625Z,699.00
2024-02-19T04:57:42.638Z,699.00
2024-02-19T04:58:42.608Z,699.00
2024-02-19T04:59:42.622Z,701.00
2024-02-19T05:00:42.725Z,702.00
2024-02-19T05:01:42.661Z,700.00
2024-02-19T05:02:42.602Z,699.00
2024-02-19T05:03:42.656Z,701.00
2024-02-19T05:04:42.753Z,702.00
2024-02-19T05:05:42.689Z,703.00
2024-02-19T05:06:42.684Z,708.00
2024-02-19T05:07:42.611Z,708.00
2024-02-19T05:08:42.617Z,709.00
2024-02-19T05:09:42.636Z,709.00
2024-02-19T05:10:42.682Z,710.00
2024-02-19T05:11:42.711Z,712.00
2024-02-19T05:12:42.620Z,710.00
2024-02-19T05:13:42.622Z,707.00
2024-02-19T05:14:42.630Z,706.00
2024-02-19T05:15:42.642Z,704.00
2024-02-19T05:16:42.624Z,703.00
2024-02-19T05:17:42.684Z,704.00
2024-02-19T05:18:42.784Z,705.00
2024-02-19T05:19:43.141Z,706.00
2024-02-19T05:20:42.827Z,707.00
2024-02-19T05:21:42.934Z,706.00
2024-02-19T05:22:42.928Z,708.00
2024-02-19T05:23:43.021Z,709.00
2024-02-19T05:24:43.121Z,710.00
2024-02-19T05:25:43.135Z,711.00
2024-02-19T05:26:43.193Z,710.00
2024-02-19T05:27:43.357Z,710.00
2024-02-19T05:28:43.345Z,711.00
2024-02-19T05:29:43.419Z,710.00
2024-02-19T05:30:43.529Z,708.00
2024-02-19T05:31:43.546Z,705.00
2024-02-19T05:32:43.608Z,705.00
2024-02-19T05:33:43.753Z,706.00
2024-02-19T05:34:43.766Z,704.00
2024-02-19T05:35:43.944Z,704.00
2024-02-19T05:36:43.907Z,706.00
2024-02-19T05:37:43.956Z,706.00
2024-02-19T05:38:44.029Z,707.00
2024-02-19T05:39:44.166Z,707.00
2024-02-19T05:40:44.160Z,705.00
2024-02-19T05:41:44.260Z,705.00
2024-02-19T05:42:44.363Z,705.00
2024-02-19T05:43:44.377Z,707.00
2024-02-19T05:44:44.461Z,707.00
2024-02-19T05:45:44.589Z,705.00
2024-02-19T05:46:44.704Z,704.00
2024-02-19T05:47:44.839Z,705.00
2024-02-19T05:48:44.782Z,706.00
2024-02-19T05:49:46.344Z,709.00
2024-02-19T05:50:44.830Z,709.00
2024-02-19T05:51:44.918Z,708.00
2024-02-19T05:52:44.942Z,710.00
2024-02-19T05:53:45.079Z,711.00
2024-02-19T05:54:45.147Z,709.00
2024-02-19T05:55:45.145Z,711.00
2024-02-19T05:56:45.200Z,709.00
2024-02-19T05:57:45.288Z,711.00
2024-02-19T05:58:45.326Z,709.00
2024-02-19T05:59:45.399Z,707.00
2024-02-19T06:00:45.524Z,706.00
2024-02-19T06:01:45.732Z,707.00
2024-02-19T06:02:45.690Z,708.00
2024-02-19T06:03:45.672Z,710.00
2024-02-19T06:04:45.785Z,711.00
2024-02-19T06:05:45.797Z,712.00
2024-02-19T06:06:45.914Z,714.00
2024-02-19T06:07:45.905Z,714.00
2024-02-19T06:08:45.931Z,717.00
2024-02-19T06:09:46.085Z,714.00
2024-02-19T06:10:46.094Z,715.00
2024-02-19T06:11:46.176Z,713.00
2024-02-19T06:12:46.269Z,712.00
2024-02-19T06:13:46.307Z,713.00
2024-02-19T06:14:46.365Z,713.00
2024-02-19T06:15:46.564Z,714.00
2024-02-19T06:16:46.522Z,714.00
2024-02-19T06:17:46.621Z,713.00
2024-02-19T06:18:46.967Z,708.00
2024-02-19T06:19:46.794Z,709.00
2024-02-19T06:20:46.806Z,711.00
2024-02-19T06:21:46.898Z,711.00
2024-02-19T06:22:46.949Z,712.00
2024-02-19T06:23:47.025Z,711.00
2024-02-19T06:24:47.138Z,711.00
2024-02-19T06:25:47.161Z,713.00
2024-02-19T06:26:47.219Z,716.00
2024-02-19T06:27:47.306Z,716.00
2024-02-19T06:28:47.355Z,720.00
2024-02-19T06:29:47.457Z,722.00
2024-02-19T06:30:47.561Z,723.00
2024-02-19T06:31:47.593Z,723.00
2024-02-19T06:32:47.641Z,722.00
2024-02-19T06:33:47.830Z,726.00
2024-02-19T06:34:47.926Z,731.00
2024-02-19T06:35:47.850Z,732.00
2024-02-19T06:36:47.990Z,738.00
2024-02-19T06:37:47.974Z,737.00
2024-02-19T06:38:48.019Z,740.00
2024-02-19T06:39:48.110Z,745.00
2024-02-19T06:40:48.148Z,748.00
2024-02-19T06:41:48.229Z,755.00
2024-02-19T06:42:49.215Z,766.00
2024-02-19T06:43:48.374Z,772.00
2024-02-19T06:44:48.427Z,773.00
2024-02-19T06:45:48.535Z,782.00
2024-02-19T06:46:48.574Z,798.00
2024-02-19T06:47:48.706Z,830.00
2024-02-19T06:48:50.724Z,832.00
2024-02-19T06:49:48.874Z,838.00
2024-02-19T06:50:48.815Z,841.00
2024-02-19T06:51:48.902Z,856.00
2024-02-19T06:52:48.872Z,865.00
2024-02-19T06:53:48.948Z,896.00
2024-02-19T06:54:49.036Z,956.00
2024-02-19T06:55:49.057Z,979.00
2024-02-19T06:56:49.129Z,981.00
2024-02-19T06:57:49.260Z,992.00
2024-02-19T06:58:49.254Z,1008.00
2024-02-19T06:59:49.359Z,1022.00
2024-02-19T07:00:49.471Z,1044.00
2024-02-19T07:01:49.536Z,1073.00
2024-02-19T07:02:49.581Z,1155.00
2024-02-19T07:03:49.773Z,1185.00
2024-02-19T07:04:49.677Z,1198.00
2024-02-19T07:05:49.774Z,1244.00
2024-02-19T07:06:49.815Z,1270.00
2024-02-19T07:07:49.832Z,1282.00
2024-02-19T07:08:49.884Z,1305.00
2024-02-19T07:09:49.902Z,1322.00
2024-02-19T07:10:49.943Z,1336.00
2024-02-19T07:11:50.054Z,1358.00
2024-02-19T07:12:50.003Z,1376.00
2024-02-19T07:13:50.102Z,1393.00
2024-02-19T07:14:50.070Z,1411.00
2024-02-19T07:15:50.121Z,1431.00
2024-02-19T07:16:50.128Z,1446.00
2024-02-19T07:17:50.243Z,1463.00
2024-02-19T07:18:50.310Z,1478.00
2024-02-19T07:19:50.295Z,1487.00
2024-02-19T07:20:50.240Z,1498.00
2024-02-19T07:21:50.292Z,1520.00
2024-02-19T07:22:50.273Z,1538.00
2024-02-19T07:23:50.292Z,1552.00
2024-02-19T07:24:50.976Z,1564.00
2024-02-19T07:25:51.662Z,1578.00
2024-02-19T07:26:50.308Z,1589.00
2024-02-19T07:27:50.417Z,1603.00
2024-02-19T07:28:50.337Z,1618.00
2024-02-19T07:29:50.328Z,1635.00
2024-02-19T07:30:50.360Z,1639.00
2024-02-19T07:31:50.329Z,1647.00
2024-02-19T07:32:50.378Z,1671.00
2024-02-19T07:33:50.439Z,1697.00
2024-02-19T07:34:50.371Z,1706.00
2024-02-19T07:35:50.427Z,1715.00
2024-02-19T07:36:50.488Z,1722.00
2024-02-19T07:37:50.320Z,1728.00
2024-02-19T07:38:50.334Z,1737.00
2024-02-19T07:39:50.836Z,1744.00
2024-02-19T07:40:50.338Z,1759.00
2024-02-19T07:41:50.318Z,1777.00
2024-02-19T07:42:50.400Z,1804.00
2024-02-19T07:43:50.337Z,1818.00
2024-02-19T07:44:50.353Z,1825.00
2024-02-19T07:45:50.353Z,1836.00
2024-02-19T07:46:50.337Z,1850.00
2024-02-19T07:47:50.409Z,1865.00
2024-02-19T07:48:50.467Z,1868.00
2024-02-19T07:49:50.380Z,1874.00
2024-02-19T07:50:50.338Z,1888.00
2024-02-19T07:51:50.364Z,1893.00
2024-02-19T07:52:50.325Z,1893.00
2024-02-19T07:53:50.329Z,1740.00
2024-02-19T07:54:50.405Z,1421.00
2024-02-19T07:55:50.415Z,1179.00
2024-02-19T07:56:50.319Z,1173.00
2024-02-19T07:57:50.380Z,1109.00
2024-02-19T07:58:50.365Z,1168.00
2024-02-19T07:59:50.327Z,1386.00
2024-02-19T08:00:50.371Z,1439.00
2024-02-19T08:01:50.495Z,1444.00
2024-02-19T08:02:50.321Z,1453.00
2024-02-19T08:03:50.416Z,1468.00
2024-02-19T08:04:50.494Z,1487.00
2024-02-19T08:05:50.361Z,1507.00
2024-02-19T08:06:50.449Z,1543.00
2024-02-19T08:07:50.426Z,1560.00
2024-02-19T08:08:50.333Z,1579.00
2024-02-19T08:09:50.370Z,1597.00
2024-02-19T08:10:50.320Z,1619.00
2024-02-19T08:11:50.436Z,1639.00
2024-02-19T08:12:50.479Z,1672.00
2024-02-19T08:13:50.407Z,1697.00
2024-02-19T08:14:50.320Z,1714.00
2024-02-19T08:15:50.348Z,1744.00
2024-02-19T08:16:50.368Z,1762.00
2024-02-19T08:17:50.453Z,1777.00
2024-02-19T08:18:50.442Z,1791.00
2024-02-19T08:19:50.360Z,1825.00
2024-02-19T08:20:50.340Z,1847.00
2024-02-19T08:21:50.492Z,1862.00
2024-02-19T08:22:51.283Z,1891.00
2024-02-19T08:23:50.345Z,1917.00
2024-02-19T08:24:50.400Z,1940.00
2024-02-19T08:25:50.346Z,1957.00
2024-02-19T08:26:50.338Z,1982.00
2024-02-19T08:27:51.928Z,2023.00
2024-02-19T08:28:50.337Z,2043.00
2024-02-19T08:29:50.346Z,2079.00
2024-02-19T08:30:50.387Z,2099.00
2024-02-19T08:31:50.363Z,2122.00
2024-02-19T08:32:50.436Z,2143.00
2024-02-19T08:33:50.518Z,2168.00
2024-02-19T08:34:50.447Z,2190.00
2024-02-19T08:35:50.383Z,2248.00
2024-02-19T08:36:50.382Z,2264.00
2024-02-19T08:37:50.366Z,2279.00
2024-02-19T08:38:50.402Z,2292.00
2024-02-19T08:39:50.449Z,2305.00
2024-02-19T08:40:50.362Z,2363.00
2024-02-19T08:41:50.350Z,2387.00
2024-02-19T08:42:50.367Z,2399.00
2024-02-19T08:43:50.359Z,2421.00
2024-02-19T08:44:50.371Z,2437.00
2024-02-19T08:45:50.422Z,2454.00
2024-02-19T08:46:50.381Z,2473.00
2024-02-19T08:47:50.382Z,2563.00
2024-02-19T08:48:50.452Z,2590.00
2024-02-19T08:49:50.488Z,2597.00
2024-02-19T08:50:50.361Z,2602.00
2024-02-19T08:51:50.380Z,2604.00
2024-02-19T08:52:50.378Z,2614.00
2024-02-19T08:53:56.710Z,2632.00
2024-02-19T08:54:51.393Z,2639.00
2024-02-19T08:55:50.438Z,2642.00
2024-02-19T08:56:50.378Z,2646.00
2024-02-19T08:57:50.428Z,2647.00
2024-02-19T08:58:50.423Z,2629.00
2024-02-19T08:59:50.367Z,2118.00
2024-02-19T09:00:50.491Z,1473.00
2024-02-19T09:01:50.473Z,1115.00
2024-02-19T09:02:50.392Z,972.00
2024-02-19T09:03:50.498Z,822.00
2024-02-19T09:04:50.541Z,792.00
2024-02-19T09:05:50.403Z,722.00
2024-02-19T09:06:50.469Z,684.00
2024-02-19T09:07:50.505Z,672.00
2024-02-19T09:08:50.438Z,667.00
2024-02-19T09:09:50.539Z,663.00
2024-02-19T09:10:50.504Z,637.00
2024-02-19T09:11:50.618Z,605.00
2024-02-19T09:12:50.616Z,592.00
2024-02-19T09:13:50.651Z,580.00
2024-02-19T09:14:50.732Z,573.00
2024-02-19T09:15:50.836Z,562.00
2024-02-19T09:16:50.852Z,559.00
2024-02-19T09:17:50.880Z,556.00
2024-02-19T09:18:50.981Z,552.00
2024-02-19T09:19:50.947Z,554.00
2024-02-19T09:20:58.254Z,600.00
2024-02-19T09:21:58.243Z,599.00
2024-02-19T09:22:58.238Z,592.00
2024-02-19T09:23:58.234Z,583.00
2024-02-19T09:24:58.270Z,578.00
2024-02-19T09:25:58.248Z,575.00
2024-02-19T09:26:58.238Z,568.00
2024-02-19T09:27:58.322Z,563.00
2024-02-19T09:28:58.241Z,559.00
2024-02-19T09:29:58.248Z,555.00
2024-02-19T09:30:58.270Z,549.00
2024-02-19T09:31:58.246Z,548.00
2024-02-19T09:32:58.314Z,544.00
2024-02-19T09:33:58.540Z,541.00
2024-02-19T09:34:58.318Z,539.00
2024-02-19T09:35:58.246Z,538.00
2024-02-19T09:36:58.325Z,538.00
2024-02-19T09:37:58.260Z,536.00
2024-02-19T09:38:58.274Z,536.00
2024-02-19T09:39:58.314Z,534.00
2024-02-19T09:40:58.273Z,533.00
2024-02-19T09:41:58.272Z,530.00
2024-02-19T09:42:58.281Z,534.00
2024-02-19T09:43:58.305Z,543.00
2024-02-19T09:44:58.256Z,541.00
2024-02-19T09:45:58.323Z,541.00
2024-02-19T09:46:58.285Z,539.00
2024-02-19T09:47:58.447Z,538.00
2024-02-19T09:48:58.446Z,535.00
2024-02-19T09:49:58.324Z,534.00
2024-02-19T09:50:58.278Z,533.00
2024-02-19T09:51:58.348Z,530.00
2024-02-19T09:52:58.280Z,530.00
2024-02-19T09:53:58.288Z,529.00
2024-02-19T09:54:58.376Z,526.00
2024-02-19T09:55:58.285Z,526.00
2024-02-19T09:56:58.311Z,528.00
2024-02-19T09:57:58.304Z,534.00
2024-02-19T09:58:58.287Z,545.00
2024-02-19T09:59:58.296Z,558.00
2024-02-19T10:00:58.334Z,573.00
2024-02-19T10:01:58.342Z,601.00
2024-02-19T10:02:58.309Z,611.00
2024-02-19T10:03:58.411Z,614.00
2024-02-19T10:04:59.400Z,620.00
2024-02-19T10:05:58.467Z,628.00
2024-02-19T10:06:58.621Z,652.00
2024-02-19T10:07:58.657Z,666.00
2024-02-19T10:08:58.558Z,674.00
2024-02-19T10:09:58.666Z,692.00
2024-02-19T10:10:58.616Z,702.00
2024-02-19T10:11:58.658Z,708.00
2024-02-19T10:12:58.663Z,717.00
2024-02-19T10:13:58.670Z,728.00
2024-02-19T10:14:58.697Z,746.00
2024-02-19T10:16:00.421Z,760.00
2024-02-19T10:16:58.743Z,769.00
2024-02-19T10:17:58.808Z,848.00
2024-02-19T10:18:58.964Z,817.00
2024-02-19T10:19:58.966Z,821.00
2024-02-19T10:20:58.977Z,828.00
2024-02-19T10:21:59.086Z,840.00
2024-02-19T10:22:59.115Z,848.00
2024-02-19T10:23:59.201Z,851.00
2024-02-19T10:24:59.248Z,853.00
2024-02-19T10:25:59.288Z,856.00
2024-02-19T10:26:59.335Z,860.00
2024-02-19T10:27:59.403Z,867.00
2024-02-19T10:28:59.409Z,876.00
2024-02-19T10:29:59.456Z,882.00
2024-02-19T10:30:59.520Z,885.00
2024-02-19T10:31:59.543Z,892.00
2024-02-19T10:32:59.632Z,908.00
2024-02-19T10:33:59.816Z,948.00
2024-02-19T10:34:59.710Z,957.00
2024-02-19T10:35:59.722Z,965.00
2024-02-19T10:36:59.815Z,965.00
2024-02-19T10:37:59.754Z,978.00
2024-02-19T10:38:59.785Z,988.00
2024-02-19T10:39:59.871Z,1012.00
2024-02-19T10:40:59.847Z,1026.00
2024-02-19T10:41:59.897Z,1029.00
2024-02-19T10:42:59.944Z,1038.00
2024-02-19T10:43:59.959Z,1050.00
2024-02-19T10:44:59.960Z,1061.00
2024-02-19T10:46:00.003Z,1070.00
2024-02-19T10:47:00.943Z,1076.00
2024-02-19T10:48:00.188Z,1078.00
2024-02-19T10:49:00.224Z,1069.00
2024-02-19T10:50:00.966Z,1065.00
2024-02-19T10:51:00.112Z,1021.00
2024-02-19T10:52:00.207Z,967.00
2024-02-19T10:53:00.200Z,959.00
2024-02-19T10:54:00.272Z,959.00
2024-02-19T10:55:09.585Z,947.00
2024-02-19T10:56:04.418Z,872.00
2024-02-19T10:57:00.348Z,853.00
2024-02-19T10:58:00.395Z,847.00
2024-02-19T10:59:00.348Z,857.00
2024-02-19T11:00:00.349Z,845.00
2024-02-19T11:01:00.385Z,815.00
2024-02-19T11:02:00.403Z,812.00
2024-02-19T11:03:00.345Z,799.00
2024-02-19T11:04:00.389Z,787.00
2024-02-19T11:05:00.472Z,779.00
2024-02-19T11:06:00.672Z,775.00
2024-02-19T11:07:00.624Z,776.00
2024-02-19T11:08:00.662Z,768.00
2024-02-19T11:09:00.714Z,761.00
2024-02-19T11:10:00.903Z,752.00
2024-02-19T11:11:00.930Z,733.00
2024-02-19T11:12:01.179Z,733.00
2024-02-19T11:13:01.974Z,738.00
2024-02-19T11:14:01.064Z,743.00
2024-02-19T11:15:01.133Z,740.00
2024-02-19T11:16:01.230Z,728.00
2024-02-19T11:17:01.262Z,724.00
2024-02-19T11:18:01.359Z,708.00
2024-02-19T11:19:01.553Z,697.00
2024-02-19T11:20:01.525Z,690.00
2024-02-19T11:21:01.422Z,690.00
2024-02-19T11:22:01.535Z,686.00
2024-02-19T11:23:01.503Z,687.00
2024-02-19T11:24:01.524Z,680.00
2024-02-19T11:25:01.574Z,666.00
2024-02-19T11:26:01.546Z,662.00
2024-02-19T11:27:01.567Z,660.00
2024-02-19T11:28:01.663Z,659.00
2024-02-19T11:29:01.612Z,654.00
2024-02-19T11:30:01.703Z,649.00
2024-02-19T11:31:01.686Z,645.00
2024-02-19T11:32:01.682Z,644.00
2024-02-19T11:33:01.748Z,646.00
2024-02-19T11:34:01.703Z,647.00
2024-02-19T11:35:01.721Z,645.00
2024-02-19T11:36:01.675Z,644.00
2024-02-19T11:37:01.747Z,637.00
2024-02-19T11:38:01.711Z,636.00
2024-02-19T11:39:01.755Z,629.00
2024-02-19T11:40:01.780Z,623.00
2024-02-19T11:41:01.757Z,615.00
2024-02-19T11:42:01.776Z,605.00
2024-02-19T11:43:01.855Z,594.00
2024-02-19T11:44:01.827Z,588.00
2024-02-19T11:45:01.870Z,582.00
2024-02-19T11:46:01.904Z,580.00
2024-02-19T11:47:01.920Z,581.00
2024-02-19T11:48:02.160Z,576.00
2024-02-19T11:49:02.034Z,579.00
2024-02-19T11:50:02.183Z,579.00
2024-02-19T11:51:02.025Z,578.00
2024-02-19T11:52:08.255Z,571.00
2024-02-19T11:53:03.111Z,568.00
2024-02-19T11:54:02.048Z,563.00
2024-02-19T11:55:02.082Z,560.00
2024-02-19T11:56:02.024Z,558.00
2024-02-19T11:57:02.044Z,553.00
2024-02-19T11:58:03.051Z,547.00
2024-02-19T11:59:02.073Z,548.00
2024-02-19T12:00:02.053Z,543.00
2024-02-19T12:01:02.175Z,544.00
2024-02-19T12:02:02.102Z,542.00
2024-02-19T12:03:02.038Z,540.00
2024-02-19T12:04:02.118Z,539.00
2024-02-19T12:05:02.087Z,541.00
2024-02-19T12:06:02.102Z,540.00
2024-02-19T12:07:02.124Z,538.00
2024-02-19T12:08:02.115Z,537.00
2024-02-19T12:09:02.065Z,538.00
2024-02-19T12:10:02.070Z,535.00
2024-02-19T12:11:02.207Z,531.00
2024-02-19T12:12:02.144Z,528.00
2024-02-19T12:13:02.146Z,526.00
2024-02-19T12:14:02.060Z,523.00
2024-02-19T12:15:02.113Z,520.00
2024-02-19T12:16:02.130Z,519.00
2024-02-19T12:17:02.073Z,515.00
2024-02-19T12:18:02.218Z,511.00
2024-02-19T12:19:02.333Z,510.00
2024-02-19T12:20:02.223Z,509.00
2024-02-19T12:21:02.066Z,510.00
2024-02-19T12:22:02.124Z,510.00
2024-02-19T12:23:02.112Z,508.00
2024-02-19T12:24:02.133Z,508.00
2024-02-19T12:25:02.213Z,506.00